Time;durP1;ratioP1;P1;durP2;ratioP2;P2;SDS_P1;SDS_P2;PMS_P1;PMS_P2;Temp;Humidity;BMP_temperature;BMP_pressure;BME280_temperature;BME280_humidity;BME280_pressure;Samples;Min_cycle;Max_cycle;Signal;HPM_P1;HPM_P2
2021/03/06 00:00:26;;;;;;;13.68;8.73;;;0.90;99.30;;;;;;5068272;28;20520;-50
2021/03/06 00:02:52;;;;;;;12.20;8.60;;;0.80;99.60;;;;;;5067914;28;20119;-50
2021/03/06 00:05:18;;;;;;;14.60;9.73;;;0.80;99.50;;;;;;5066444;28;20032;-54
2021/03/06 00:07:44;;;;;;;11.93;8.02;;;0.70;99.50;;;;;;5068423;28;20036;-47
2021/03/06 00:10:12;;;;;;;12.02;7.85;;;0.70;99.60;;;;;;5032339;28;20081;-51
2021/03/06 00:12:46;;;;;;;11.85;7.88;;;0.60;99.70;;;;;;5048372;28;20462;-52
2021/03/06 00:15:19;;;;;;;11.43;8.07;;;0.60;99.80;;;;;;5046714;28;20469;-53
2021/03/06 00:17:44;;;;;;;13.82;8.65;;;0.60;99.80;;;;;;5067584;28;20453;-51
2021/03/06 00:20:10;;;;;;;15.07;8.52;;;0.50;99.80;;;;;;5068507;28;20070;-51
2021/03/06 00:22:36;;;;;;;15.40;8.07;;;;;;;;;;5066103;28;20394;-51
2021/03/06 00:25:05;;;;;;;13.90;8.60;;;0.60;99.30;;;;;;5067666;28;20078;-52
2021/03/06 00:27:31;;;;;;;14.73;8.48;;;0.70;99.60;;;;;;5065098;28;20558;-48
2021/03/06 00:29:56;;;;;;;13.85;9.27;;;0.70;99.60;;;;;;5067524;28;20036;-47
2021/03/06 00:32:22;;;;;;;14.05;8.38;;;0.60;99.70;;;;;;5065999;28;20032;-52
2021/03/06 00:34:47;;;;;;;13.07;7.85;;;0.60;99.50;;;;;;5049847;28;20032;-50
2021/03/06 00:37:13;;;;;;;11.50;7.88;;;0.60;99.60;;;;;;5062021;28;20108;-47
2021/03/06 00:39:38;;;;;;;16.38;7.97;;;0.60;99.60;;;;;;5050333;28;20036;-49
2021/03/06 00:42:04;;;;;;;12.43;7.45;;;0.50;99.60;;;;;;5054153;28;20111;-50
2021/03/06 00:44:30;;;;;;;16.35;8.98;;;0.50;99.70;;;;;;5070616;28;20028;-51
2021/03/06 00:46:56;;;;;;;14.10;8.68;;;0.40;99.70;;;;;;5065475;28;20037;-53
2021/03/06 00:49:23;;;;;;;11.05;7.50;;;0.40;99.80;;;;;;5050977;28;20088;-49
2021/03/06 00:51:49;;;;;;;14.43;9.07;;;0.40;99.80;;;;;;5041864;28;20025;-54
2021/03/06 00:54:14;;;;;;;12.52;8.20;;;0.40;99.70;;;;;;5070269;28;20025;-54
2021/03/06 00:56:40;;;;;;;10.68;8.10;;;0.40;99.70;;;;;;5045564;28;20025;-47
2021/03/06 00:59:06;;;;;;;11.13;7.75;;;0.50;99.80;;;;;;5032794;28;20025;-49
2021/03/06 01:01:31;;;;;;;13.57;8.02;;;0.40;99.80;;;;;;5051645;28;20098;-49
2021/03/06 01:03:58;;;;;;;14.35;8.48;;;0.40;99.90;;;;;;5070200;28;20020;-53
2021/03/06 01:06:23;;;;;;;14.27;8.65;;;0.40;99.80;;;;;;5067018;28;20029;-50
2021/03/06 01:08:49;;;;;;;13.63;7.82;;;0.40;99.80;;;;;;5050398;28;20033;-54
2021/03/06 01:11:15;;;;;;;13.45;8.40;;;0.40;99.80;;;;;;5051654;28;20024;-53
2021/03/06 01:13:40;;;;;;;11.88;7.63;;;0.30;99.90;;;;;;5050162;28;20025;-48
2021/03/06 01:16:06;;;;;;;10.25;7.30;;;0.30;99.90;;;;;;5055034;28;20033;-49
2021/03/06 01:18:31;;;;;;;11.85;7.72;;;0.20;99.90;;;;;;5070097;28;20474;-45
2021/03/06 01:20:57;;;;;;;11.38;8.20;;;0.20;99.90;;;;;;5068554;28;20024;-53
2021/03/06 01:23:23;;;;;;;13.63;7.35;;;0.20;99.90;;;;;;5069998;28;20163;-47
2021/03/06 01:25:48;;;;;;;14.40;7.97;;;0.20;99.90;;;;;;5068114;28;20037;-48
2021/03/06 01:28:14;;;;;;;11.32;7.22;;;0.20;99.90;;;;;;5032126;28;20465;-49
2021/03/06 01:30:39;;;;;;;16.35;8.25;;;0.20;99.90;;;;;;5049908;28;20028;-51
2021/03/06 01:33:06;;;;;;;10.77;7.45;;;0.20;99.90;;;;;;5069139;28;20082;-48
2021/03/06 01:35:31;;;;;;;12.25;7.80;;;0.10;99.90;;;;;;5069920;28;20494;-50
2021/03/06 01:37:57;;;;;;;16.15;8.23;;;0.10;99.90;;;;;;5052690;28;20021;-47
2021/03/06 01:40:31;;;;;;;13.82;8.07;;;0.00;99.90;;;;;;5053309;28;20039;-46
2021/03/06 01:42:58;;;;;;;13.50;7.68;;;0.10;99.90;;;;;;5070155;28;20107;-47
2021/03/06 01:45:24;;;;;;;11.65;7.72;;;0.20;99.90;;;;;;5075276;22;20045;-52
2021/03/06 01:47:50;;;;;;;10.55;7.10;;;0.10;99.90;;;;;;5053627;28;20095;-49
2021/03/06 01:50:27;;;;;;;11.48;7.32;;;0.10;99.90;;;;;;5053382;28;20041;-49
2021/03/06 01:52:53;;;;;;;14.13;8.25;;;0.10;99.90;;;;;;5052884;28;20032;-50
2021/03/06 01:55:22;;;;;;;11.95;7.93;;;0.10;99.90;;;;;;5035187;28;20025;-46
2021/03/06 01:57:48;;;;;;;11.63;8.35;;;0.10;99.90;;;;;;5053493;28;20505;-47
2021/03/06 02:00:14;;;;;;;15.38;7.55;;;0.20;99.90;;;;;;5035349;28;20037;-48
2021/03/06 02:02:42;;;;;;;10.82;7.25;;;0.10;99.90;;;;;;5034817;28;20021;-46
2021/03/06 02:05:08;;;;;;;13.40;8.15;;;0.20;99.90;;;;;;5034987;28;20028;-48
2021/03/06 02:07:34;;;;;;;16.05;8.40;;;0.20;99.90;;;;;;5035162;28;20029;-49
2021/03/06 02:10:01;;;;;;;13.77;8.30;;;0.20;99.90;;;;;;5034896;28;20039;-49
2021/03/06 02:12:42;;;;;;;11.45;8.07;;;0.20;99.90;;;;;;5034869;28;20479;-48
2021/03/06 02:15:37;;;;;;;11.77;7.38;;;0.10;99.90;;;;;;5035063;28;20029;-50
2021/03/06 02:18:10;;;;;;;11.68;7.90;;;0.10;99.90;;;;;;5052920;28;20029;-49
2021/03/06 02:20:58;;;;;;;13.40;8.43;;;0.10;99.90;;;;;;5035169;28;20174;-47
2021/03/06 02:24:01;;;;;;;13.73;8.57;;;0.00;99.90;;;;;;5052107;28;20049;-45
2021/03/06 02:26:43;;;;;;;12.77;7.55;;;0.20;99.90;;;;;;5053490;28;20025;-47
2021/03/06 02:29:32;;;;;;;10.48;7.72;;;;;;;;;;5035861;28;20482;-50
2021/03/06 02:32:03;;;;;;;10.50;7.28;;;0.20;99.90;;;;;;5052919;28;20049;-50
2021/03/06 02:34:30;;;;;;;15.05;8.30;;;0.20;99.90;;;;;;5033791;28;20025;-48
2021/03/06 02:36:59;;;;;;;12.75;8.63;;;0.10;99.90;;;;;;5051920;28;20032;-47
2021/03/06 02:39:26;;;;;;;11.88;7.47;;;0.00;99.90;;;;;;5052461;28;20028;-50
2021/03/06 02:41:54;;;;;;;11.23;7.95;;;-0.10;99.90;;;;;;5034506;28;20037;-49
2021/03/06 02:44:21;;;;;;;10.05;7.40;;;-0.20;99.90;;;;;;5034109;28;20086;-51
2021/03/06 02:46:47;;;;;;;14.10;7.95;;;-0.20;99.90;;;;;;5050678;28;20028;-48
2021/03/06 02:49:13;;;;;;;10.20;7.78;;;-0.30;99.90;;;;;;5052393;28;20029;-48
2021/03/06 02:51:40;;;;;;;12.00;7.63;;;-0.40;99.90;;;;;;5017838;28;20056;-51
2021/03/06 02:54:07;;;;;;;13.18;7.63;;;-0.30;99.90;;;;;;5033720;28;20398;-49
2021/03/06 02:56:35;;;;;;;16.40;8.25;;;-0.40;99.90;;;;;;5051855;28;20036;-51
2021/03/06 02:59:27;;;;;;;16.15;7.78;;;-0.40;99.90;;;;;;5052573;28;20095;-46
2021/03/06 03:02:15;;;;;;;12.38;7.65;;;-0.40;99.90;;;;;;5052132;28;20236;-49
2021/03/06 03:05:01;;;;;;;14.05;8.32;;;-0.20;99.90;;;;;;5051577;28;20029;-47
2021/03/06 03:07:59;;;;;;;15.43;8.30;;;-0.50;99.90;;;;;;5051940;28;20039;-45
2021/03/06 03:10:25;;;;;;;12.82;7.50;;;-0.50;99.90;;;;;;5052153;28;20103;-48
2021/03/06 03:13:18;;;;;;;11.40;7.85;;;-0.60;99.90;;;;;;5051707;28;20101;-51
2021/03/06 03:15:51;;;;;;;11.48;7.82;;;-0.60;99.90;;;;;;5033992;28;20021;-48
2021/03/06 03:18:22;;;;;;;11.00;8.15;;;;;;;;;;5051915;28;20031;-46
2021/03/06 03:20:52;;;;;;;12.32;7.68;;;-0.60;99.90;;;;;;5051653;28;20036;-48
2021/03/06 03:23:42;;;;;;;13.18;8.70;;;-0.70;99.90;;;;;;5050976;28;20124;-49
2021/03/06 03:26:13;;;;;;;13.85;8.70;;;-0.90;99.90;;;;;;5031632;28;20025;-49
2021/03/06 03:28:43;;;;;;;13.88;8.27;;;-0.90;99.90;;;;;;5031762;28;20518;-48
2021/03/06 03:31:10;;;;;;;11.95;8.68;;;-1.00;99.90;;;;;;5031834;28;20099;-47
2021/03/06 03:33:39;;;;;;;15.95;8.88;;;-0.90;99.90;;;;;;5030944;28;20025;-46
2021/03/06 03:36:05;;;;;;;15.13;8.95;;;-1.00;99.90;;;;;;5050031;28;20056;-47
2021/03/06 03:38:32;;;;;;;15.02;7.40;;;-1.00;99.90;;;;;;5051525;28;20048;-48
2021/03/06 03:41:01;;;;;;;13.90;7.00;;;;;;;;;;5031977;28;20025;-49
2021/03/06 03:43:27;;;;;;;11.07;7.55;;;-1.00;99.90;;;;;;5032663;28;20025;-49
2021/03/06 03:45:54;;;;;;;14.63;7.75;;;-1.10;99.90;;;;;;5034177;28;20064;-52
2021/03/06 03:48:21;;;;;;;12.75;8.23;;;-1.10;99.90;;;;;;5031461;28;20022;-49
2021/03/06 03:50:47;;;;;;;12.23;8.18;;;-1.00;99.90;;;;;;5027409;28;20425;-51
2021/03/06 03:53:13;;;;;;;12.70;8.05;;;-1.10;99.90;;;;;;5050519;28;20032;-49
2021/03/06 03:55:40;;;;;;;11.63;7.75;;;-1.00;99.90;;;;;;5038306;28;20061;-49
2021/03/06 03:58:07;;;;;;;12.75;8.73;;;-1.00;99.90;;;;;;5032314;28;20033;-51
2021/03/06 04:00:33;;;;;;;11.73;7.82;;;-1.00;99.90;;;;;;5012877;28;20029;-46
2021/03/06 04:03:03;;;;;;;10.82;7.85;;;-1.00;99.90;;;;;;5019573;28;20036;-49
2021/03/06 04:05:29;;;;;;;10.98;7.75;;;;;;;;;;5050921;28;20036;-49
2021/03/06 04:07:55;;;;;;;12.40;8.50;;;;;;;;;;5044918;28;20526;-50
2021/03/06 04:10:22;;;;;;;11.88;8.65;;;;;;;;;;5031131;28;20441;-47
2021/03/06 04:12:48;;;;;;;12.30;8.25;;;;;;;;;;5034277;28;20033;-47
2021/03/06 04:15:15;;;;;;;16.25;8.55;;;;;;;;;;5050823;28;20121;-50
2021/03/06 04:17:41;;;;;;;18.75;9.20;;;;;;;;;;5047996;28;20056;-46
2021/03/06 04:20:09;;;;;;;13.40;9.25;;;;;;;;;;5030946;28;20032;-49
2021/03/06 04:22:36;;;;;;;12.63;8.57;;;;;;;;;;5013434;28;20033;-47
2021/03/06 04:25:02;;;;;;;14.50;8.43;;;-1.10;99.90;;;;;;5050685;28;20534;-46
2021/03/06 04:27:28;;;;;;;13.38;8.18;;;;;;;;;;5032979;28;20029;-50
2021/03/06 04:29:54;;;;;;;12.88;8.32;;;-1.10;99.90;;;;;;5013346;28;20116;-50
2021/03/06 04:32:20;;;;;;;11.18;7.55;;;-1.20;99.90;;;;;;5046868;28;20039;-46
2021/03/06 04:34:45;;;;;;;14.80;7.90;;;-1.20;99.90;;;;;;5050061;28;20041;-49
2021/03/06 04:37:11;;;;;;;13.60;8.00;;;-1.30;99.90;;;;;;5036655;28;20033;-46
2021/03/06 04:39:37;;;;;;;11.18;7.22;;;-1.30;99.90;;;;;;5012969;28;20026;-51
2021/03/06 04:42:03;;;;;;;11.98;7.45;;;-1.30;99.90;;;;;;5042617;28;20037;-47
2021/03/06 04:44:28;;;;;;;12.25;7.20;;;-1.40;99.90;;;;;;5031908;28;20584;-48
2021/03/06 04:46:55;;;;;;;13.30;8.30;;;-1.30;99.90;;;;;;5038762;28;20041;-51
2021/03/06 04:49:20;;;;;;;13.60;7.82;;;-1.30;99.90;;;;;;5030403;28;20060;-46
2021/03/06 04:51:46;;;;;;;14.57;9.05;;;-1.30;99.90;;;;;;5020968;28;20495;-46
2021/03/06 04:54:11;;;;;;;9.98;7.35;;;-1.30;99.90;;;;;;5044915;28;20029;-48
2021/03/06 04:56:37;;;;;;;15.95;7.10;;;-1.30;99.90;;;;;;5030347;28;20034;-46
2021/03/06 04:59:03;;;;;;;13.10;7.40;;;-1.30;99.90;;;;;;5031468;28;20033;-50
2021/03/06 05:01:28;;;;;;;11.45;7.75;;;-1.30;99.90;;;;;;5030418;28;20514;-46
2021/03/06 05:03:54;;;;;;;10.75;7.50;;;-1.30;99.90;;;;;;5030412;28;20352;-46
2021/03/06 05:06:19;;;;;;;13.60;7.65;;;-1.30;99.90;;;;;;5050196;28;20028;-49
2021/03/06 05:08:45;;;;;;;20.30;8.98;;;-1.30;99.90;;;;;;5050229;28;20494;-49
2021/03/06 05:11:10;;;;;;;10.73;6.78;;;-1.40;99.90;;;;;;5013312;28;20049;-49
2021/03/06 05:13:37;;;;;;;11.75;7.05;;;-1.40;99.90;;;;;;5033350;28;20025;-49
2021/03/06 05:16:03;;;;;;;10.05;6.38;;;-1.40;99.90;;;;;;5017897;28;20558;-47
2021/03/06 05:18:30;;;;;;;9.68;6.78;;;-1.50;99.90;;;;;;5034306;28;20045;-51
2021/03/06 05:20:56;;;;;;;13.38;8.18;;;-1.40;99.90;;;;;;5020040;28;20403;-57
2021/03/06 05:23:21;;;;;;;11.98;7.93;;;-1.40;99.90;;;;;;5035471;28;20113;-49
2021/03/06 05:25:47;;;;;;;15.02;7.50;;;-1.40;99.90;;;;;;5034080;28;20108;-49
2021/03/06 05:28:12;;;;;;;10.35;6.90;;;-1.40;99.90;;;;;;5039787;28;20033;-46
2021/03/06 05:30:38;;;;;;;12.38;7.63;;;-1.40;99.90;;;;;;5043359;28;20033;-47
2021/03/06 05:33:03;;;;;;;9.35;6.93;;;-1.40;99.90;;;;;;5053174;28;20432;-48
2021/03/06 05:35:29;;;;;;;14.68;7.78;;;-1.40;99.90;;;;;;5042942;28;20020;-48
2021/03/06 05:37:55;;;;;;;13.70;7.40;;;-1.40;99.90;;;;;;5053777;28;20394;-47
2021/03/06 05:40:21;;;;;;;10.68;7.03;;;-1.40;99.90;;;;;;5035435;28;20013;-48
2021/03/06 05:42:47;;;;;;;10.93;8.00;;;-1.40;99.90;;;;;;5035195;28;20032;-49
2021/03/06 05:45:13;;;;;;;12.30;7.43;;;-1.40;99.90;;;;;;5034496;28;20397;-46
2021/03/06 05:47:38;;;;;;;11.70;8.18;;;-1.40;99.90;;;;;;5052947;28;20557;-47
2021/03/06 05:50:07;;;;;;;10.75;7.35;;;-1.40;99.90;;;;;;5053270;28;20082;-46
2021/03/06 05:52:33;;;;;;;14.30;7.07;;;-1.40;99.90;;;;;;5033336;28;20025;-46
2021/03/06 05:55:00;;;;;;;9.75;6.88;;;-1.50;99.90;;;;;;5033310;28;20029;-47
2021/03/06 05:57:26;;;;;;;9.43;6.80;;;-1.50;99.90;;;;;;5034150;28;20021;-46
2021/03/06 05:59:52;;;;;;;19.98;7.30;;;-1.50;99.90;;;;;;5035311;28;20565;-46
2021/03/06 06:02:19;;;;;;;13.20;8.65;;;-1.40;99.90;;;;;;5051359;28;20032;-50
2021/03/06 06:04:46;;;;;;;13.90;7.80;;;-1.40;99.90;;;;;;5052550;28;20043;-48
2021/03/06 06:07:15;;;;;;;10.35;7.25;;;-1.40;99.90;;;;;;5052813;28;20021;-45
2021/03/06 06:09:40;;;;;;;12.05;8.05;;;-1.40;99.90;;;;;;5035121;28;20094;-47
2021/03/06 06:12:07;;;;;;;13.13;8.75;;;-1.40;99.90;;;;;;5053146;28;20033;-46
2021/03/06 06:14:32;;;;;;;13.63;8.48;;;-1.40;99.90;;;;;;5052261;28;20037;-48
2021/03/06 06:17:03;;;;;;;15.60;9.00;;;-1.30;99.90;;;;;;5052813;28;20017;-46
2021/03/06 06:19:31;;;;;;;17.48;8.65;;;-1.30;99.90;;;;;;5053105;28;20033;-47
2021/03/06 06:21:59;;;;;;;12.43;7.90;;;-1.30;99.90;;;;;;5052878;28;20020;-47
2021/03/06 06:24:24;;;;;;;16.08;9.07;;;-1.30;99.90;;;;;;5051870;28;20029;-48
2021/03/06 06:27:01;;;;;;;14.32;7.95;;;-1.30;99.90;;;;;;5052601;28;20066;-46
2021/03/06 06:29:46;;;;;;;9.15;7.53;;;-1.20;99.90;;;;;;5034664;28;20040;-47
2021/03/06 06:32:17;;;;;;;10.30;7.17;;;-1.20;99.90;;;;;;5053253;28;20360;-46
2021/03/06 06:34:56;;;;;;;10.57;7.57;;;-1.10;99.90;;;;;;5051290;28;20017;-46
2021/03/06 06:37:21;;;;;;;12.15;7.63;;;-0.90;99.90;;;;;;5052560;28;20371;-48
2021/03/06 06:39:47;;;;;;;11.02;7.05;;;-0.80;99.90;;;;;;5025003;28;20080;-47
2021/03/06 06:42:12;;;;;;;12.45;8.15;;;-0.80;99.90;;;;;;5032919;28;20037;-47
2021/03/06 06:44:38;;;;;;;10.10;6.38;;;-0.70;99.90;;;;;;5039645;28;20021;-49
2021/03/06 06:47:17;;;;;;;13.50;7.45;;;-0.60;99.90;;;;;;5049743;28;20037;-47
2021/03/06 06:49:48;;;;;;;13.18;8.10;;;-0.60;99.90;;;;;;5049403;28;20039;-50
2021/03/06 06:52:15;;;;;;;12.13;6.63;;;-0.50;99.90;;;;;;5050927;28;20078;-48
2021/03/06 06:54:49;;;;;;;12.70;7.05;;;-0.40;99.90;;;;;;5021054;28;20025;-50
2021/03/06 06:57:18;;;;;;;10.63;6.07;;;-0.30;99.90;;;;;;5051922;28;20028;-48
2021/03/06 07:00:07;;;;;;;15.00;7.05;;;-0.20;99.90;;;;;;5051699;28;20025;-50
2021/03/06 07:02:33;;;;;;;8.05;5.68;;;0.00;99.90;;;;;;5049594;28;20466;-50
2021/03/06 07:05:05;;;;;;;9.02;6.00;;;0.30;99.40;;;;;;5033941;28;20104;-50
2021/03/06 07:07:39;;;;;;;12.02;6.53;;;0.50;98.70;;;;;;5014365;28;20037;-49
2021/03/06 07:10:10;;;;;;;9.23;6.22;;;0.80;98.40;;;;;;5032276;28;20033;-48
2021/03/06 07:13:19;;;;;;;10.65;6.40;;;1.30;97.20;;;;;;5052213;28;20029;-51
2021/03/06 07:15:52;;;;;;;9.13;6.55;;;1.50;96.80;;;;;;4991414;28;20623;-50
2021/03/06 07:18:18;;;;;;;8.63;6.35;;;1.60;96.30;;;;;;5052392;28;20508;-50
2021/03/06 07:20:45;;;;;;;9.07;6.55;;;1.50;96.40;;;;;;5051733;28;20033;-44
2021/03/06 07:23:19;;;;;;;8.05;5.97;;;1.60;96.30;;;;;;5051010;28;20033;-45
2021/03/06 07:25:48;;;;;;;7.57;5.57;;;1.90;95.90;;;;;;5051315;28;20032;-47
2021/03/06 07:28:13;;;;;;;8.98;6.00;;;2.20;95.00;;;;;;5049590;28;20025;-45
2021/03/06 07:30:39;;;;;;;9.95;6.50;;;2.20;94.70;;;;;;5051346;28;20055;-46
2021/03/06 07:33:07;;;;;;;8.52;5.13;;;2.30;94.40;;;;;;5050487;28;20036;-50
2021/03/06 07:35:38;;;;;;;8.30;5.30;;;2.60;94.30;;;;;;5050188;28;20028;-44
2021/03/06 07:38:12;;;;;;;8.85;5.82;;;3.20;93.50;;;;;;5051176;28;20013;-46
2021/03/06 07:40:41;;;;;;;6.75;5.75;;;3.80;92.30;;;;;;5051292;28;20025;-46
2021/03/06 07:43:29;;;;;;;7.70;6.80;;;4.20;90.60;;;;;;5050380;28;20057;-45
2021/03/06 07:45:58;;;;;;;10.80;5.78;;;4.70;90.30;;;;;;5067357;22;20090;-42
2021/03/06 07:48:31;;;;;;;8.90;5.68;;;5.00;89.60;;;;;;5053203;28;20042;-47
2021/03/06 07:50:58;;;;;;;7.22;5.35;;;4.70;88.60;;;;;;5051841;28;20021;-47
2021/03/06 07:53:27;;;;;;;10.35;5.97;;;4.00;90.30;;;;;;5033433;28;20503;-50
2021/03/06 07:55:52;;;;;;;15.30;7.35;;;2.70;92.40;;;;;;5051422;28;20021;-45
2021/03/06 07:58:20;;;;;;;11.18;7.28;;;1.90;94.90;;;;;;5051619;28;20025;-49
2021/03/06 08:00:56;;;;;;;10.23;6.32;;;1.40;96.20;;;;;;5051681;28;20033;-45
2021/03/06 08:05:58;;;;;;;8.43;5.53;;;1.00;97.30;;;;;;5051417;28;20068;-49
2021/03/06 08:08:32;;;;;;;15.90;6.63;;;1.00;97.50;;;;;;5033334;28;20424;-46
2021/03/06 08:11:08;;;;;;;12.85;6.63;;;1.00;97.60;;;;;;5051334;28;20032;-44
2021/03/06 08:13:35;;;;;;;13.98;6.18;;;1.10;97.60;;;;;;5050291;28;20021;-44
2021/03/06 08:16:23;;;;;;;8.57;6.38;;;1.00;97.20;;;;;;5033128;28;20032;-48
2021/03/06 08:18:52;;;;;;;10.10;6.47;;;1.00;97.50;;;;;;5050912;28;20423;-48
2021/03/06 08:21:37;;;;;;;11.05;6.22;;;1.10;97.80;;;;;;5051058;28;20116;-45
2021/03/06 08:24:18;;;;;;;19.15;6.78;;;1.20;97.70;;;;;;5050542;28;20118;-49
2021/03/06 08:27:03;;;;;;;9.07;6.65;;;1.20;97.40;;;;;;5049825;28;20052;-44
2021/03/06 08:29:29;;;;;;;9.75;6.22;;;1.30;97.60;;;;;;5032927;28;20021;-53
2021/03/06 08:31:54;;;;;;;10.57;6.72;;;1.30;97.20;;;;;;5051694;28;20025;-44
2021/03/06 08:34:31;;;;;;;8.63;6.15;;;1.40;97.70;;;;;;5050491;28;20498;-41
2021/03/06 08:37:12;;;;;;;10.13;6.38;;;1.40;97.10;;;;;;5050764;28;20017;-44
2021/03/06 08:39:49;;;;;;;9.40;6.90;;;1.50;96.70;;;;;;5050924;28;20037;-44
2021/03/06 08:42:18;;;;;;;9.75;6.78;;;1.50;97.20;;;;;;5050426;28;20285;-42
2021/03/06 08:44:45;;;;;;;8.73;6.28;;;1.50;96.80;;;;;;5048188;28;20051;-43
2021/03/06 08:47:11;;;;;;;7.18;5.32;;;1.60;96.80;;;;;;5049971;28;20104;-46
2021/03/06 08:49:38;;;;;;;11.75;7.28;;;1.80;96.70;;;;;;5049806;28;20032;-44
2021/03/06 08:52:04;;;;;;;11.57;5.88;;;1.80;96.50;;;;;;5048881;28;20043;-48
2021/03/06 08:54:40;;;;;;;9.45;6.63;;;1.80;96.70;;;;;;5049839;28;20033;-49
2021/03/06 08:57:26;;;;;;;10.10;6.15;;;1.90;96.90;;;;;;5050454;28;20032;-46
2021/03/06 08:59:52;;;;;;;10.73;6.85;;;1.90;97.10;;;;;;5049576;28;20418;-42
2021/03/06 09:02:29;;;;;;;10.15;7.38;;;2.00;96.60;;;;;;5050100;28;20029;-40
2021/03/06 09:05:28;;;;;;;9.02;6.53;;;2.10;96.90;;;;;;5028939;28;20038;-43
2021/03/06 09:07:55;;;;;;;8.98;6.10;;;2.30;95.80;;;;;;5006322;28;20043;-48
2021/03/06 09:10:21;;;;;;;7.95;5.47;;;2.40;95.30;;;;;;5033046;28;20490;-48
2021/03/06 09:12:48;;;;;;;9.30;6.53;;;2.30;95.30;;;;;;5031999;28;20040;-42
2021/03/06 09:15:25;;;;;;;13.45;6.82;;;2.30;95.00;;;;;;5050387;28;20092;-50
2021/03/06 09:17:51;;;;;;;9.90;7.22;;;2.40;95.30;;;;;;5033125;28;20112;-46
2021/03/06 09:20:17;;;;;;;8.55;6.00;;;2.40;95.10;;;;;;5032345;28;20057;-46
2021/03/06 09:22:49;;;;;;;6.68;5.32;;;2.50;95.10;;;;;;5032081;28;20028;-48
2021/03/06 09:25:27;;;;;;;5.95;4.97;;;2.60;94.90;;;;;;5032126;28;20071;-47
2021/03/06 09:27:53;;;;;;;6.28;5.13;;;2.90;93.30;;;;;;5035412;28;20120;-48
2021/03/06 09:30:20;;;;;;;6.70;5.25;;;4.00;91.50;;;;;;5036687;28;20104;-48
2021/03/06 09:32:45;;;;;;;9.88;5.40;;;6.10;80.90;;;;;;5039651;28;20056;-50
2021/03/06 09:35:15;;;;;;;6.45;5.15;;;6.40;79.80;;;;;;5031073;28;20057;-48
2021/03/06 09:37:40;;;;;;;5.38;4.43;;;7.60;73.50;;;;;;5032688;28;20020;-51
2021/03/06 09:40:20;;;;;;;5.30;4.43;;;8.30;69.10;;;;;;5050156;28;20040;-50
2021/03/06 09:42:49;;;;;;;8.40;4.43;;;9.30;61.80;;;;;;5048981;28;20021;-50
2021/03/06 09:45:15;;;;;;;5.30;4.40;;;9.50;60.00;;;;;;5049143;28;20025;-48
2021/03/06 09:47:42;;;;;;;6.45;4.53;;;9.70;58.30;;;;;;5033060;28;20030;-46
2021/03/06 09:50:08;;;;;;;4.75;4.00;;;10.10;57.60;;;;;;5047551;28;20037;-47
2021/03/06 09:52:34;;;;;;;4.57;4.07;;;9.60;55.80;;;;;;5032685;28;20021;-46
2021/03/06 09:55:00;;;;;;;6.75;4.45;;;9.60;55.70;;;;;;5030273;28;20021;-51
2021/03/06 09:57:26;;;;;;;5.32;3.88;;;9.60;56.00;;;;;;5030098;28;20113;-48
2021/03/06 09:59:52;;;;;;;6.93;4.28;;;9.90;54.50;;;;;;5048857;28;20032;-52
2021/03/06 10:02:22;;;;;;;4.82;3.90;;;10.10;52.30;;;;;;5035673;28;20028;-51
2021/03/06 10:04:49;;;;;;;4.82;3.90;;;9.80;51.10;;;;;;5052843;28;20057;-48
2021/03/06 10:07:19;;;;;;;5.20;4.10;;;9.20;53.60;;;;;;5053146;28;20533;-54
2021/03/06 10:09:46;;;;;;;4.45;3.60;;;9.00;53.90;;;;;;5053318;28;20626;-51
2021/03/06 10:12:15;;;;;;;4.82;3.92;;;9.00;54.00;;;;;;5053307;28;20074;-49
2021/03/06 10:14:41;;;;;;;4.35;3.95;;;8.30;52.90;;;;;;5052588;28;20123;-50
2021/03/06 10:17:09;;;;;;;4.47;3.60;;;8.10;54.40;;;;;;5034995;28;20502;-49
2021/03/06 10:19:46;;;;;;;3.95;3.22;;;8.30;53.20;;;;;;5035680;28;20581;-47
2021/03/06 10:22:13;;;;;;;6.63;3.67;;;7.70;51.50;;;;;;5045791;28;20026;-49
2021/03/06 10:24:58;;;;;;;6.07;3.80;;;7.90;53.80;;;;;;5035253;28;20037;-48
2021/03/06 10:27:44;;;;;;;4.07;3.20;;;8.10;53.80;;;;;;5045939;28;20043;-51
2021/03/06 10:30:27;;;;;;;3.10;2.78;;;7.80;51.90;;;;;;5047794;28;20036;-58
2021/03/06 10:32:56;;;;;;;3.58;2.80;;;7.90;48.00;;;;;;5048586;28;20064;-58
2021/03/06 10:35:51;;;;;;;4.30;3.22;;;7.50;48.30;;;;;;5033698;28;20028;-61
2021/03/06 10:38:29;;;;;;;3.38;2.92;;;7.00;51.10;;;;;;5028773;28;20038;-61
2021/03/06 10:41:02;;;;;;;3.55;3.15;;;6.70;53.30;;;;;;5036508;28;20037;-56
2021/03/06 10:43:39;;;;;;;3.63;3.33;;;6.50;54.00;;;;;;5017714;28;20052;-54
2021/03/06 10:46:25;;;;;;;5.13;2.85;;;6.50;52.10;;;;;;5036916;28;20052;-53
2021/03/06 10:48:59;;;;;;;2.72;2.53;;;6.60;52.70;;;;;;5049560;28;20495;-57
2021/03/06 10:51:39;;;;;;;4.60;3.47;;;6.70;52.80;;;;;;5052987;28;20017;-52
2021/03/06 10:54:06;;;;;;;3.05;2.70;;;6.80;53.10;;;;;;5032409;28;20044;-48
2021/03/06 10:56:32;;;;;;;3.78;3.25;;;6.90;52.90;;;;;;5050366;28;20433;-49
2021/03/06 10:58:58;;;;;;;2.60;2.38;;;7.00;53.40;;;;;;5053283;28;20021;-50
2021/03/06 11:01:24;;;;;;;3.47;3.17;;;6.90;51.40;;;;;;5033859;28;20536;-53
2021/03/06 11:03:51;;;;;;;2.85;2.65;;;6.90;51.60;;;;;;5035235;28;20025;-47
2021/03/06 11:06:18;;;;;;;2.92;2.70;;;6.70;49.90;;;;;;5053153;28;20056;-48
2021/03/06 11:09:04;;;;;;;4.00;3.03;;;6.60;51.60;;;;;;5035238;28;20021;-48
2021/03/06 11:11:30;;;;;;;;;;;6.60;53.80;;;;;;5052596;28;20021;-51
2021/03/06 11:13:56;;;;;;;6.32;3.42;;;6.50;54.00;;;;;;5052043;28;19951;-47
2021/03/06 11:16:40;;;;;;;4.75;3.25;;;6.50;53.80;;;;;;5034043;28;20067;-50
2021/03/06 11:19:07;;;;;;;3.60;3.30;;;6.50;53.90;;;;;;5051915;28;20053;-47
2021/03/06 11:21:32;;;;;;;5.13;3.33;;;6.60;54.20;;;;;;5052065;28;20472;-49
2021/03/06 11:23:59;;;;;;;3.70;3.22;;;6.50;55.70;;;;;;5052084;28;20033;-50
2021/03/06 11:26:24;;;;;;;5.45;4.07;;;6.40;57.30;;;;;;5051780;28;20550;-49
2021/03/06 11:28:52;;;;;;;5.45;3.47;;;6.50;58.50;;;;;;5034319;28;20064;-51
2021/03/06 11:31:18;;;;;;;5.13;3.75;;;6.50;57.10;;;;;;5052017;28;20059;-51
2021/03/06 11:33:43;;;;;;;4.00;3.42;;;6.20;56.90;;;;;;5051431;28;20021;-48
2021/03/06 11:36:09;;;;;;;3.50;3.20;;;6.20;56.30;;;;;;5051904;28;20060;-48
2021/03/06 11:38:34;;;;;;;3.45;3.15;;;6.20;55.80;;;;;;5051735;28;20024;-49
2021/03/06 11:41:00;;;;;;;5.43;3.15;;;6.50;57.70;;;;;;5051616;28;20374;-47
2021/03/06 11:43:25;;;;;;;3.60;2.90;;;6.40;55.90;;;;;;5051684;28;20053;-52
2021/03/06 11:45:51;;;;;;;3.15;2.85;;;6.30;55.20;;;;;;5052370;28;20040;-48
2021/03/06 11:48:17;;;;;;;6.53;3.53;;;6.30;53.70;;;;;;5052379;28;20057;-51
2021/03/06 11:50:45;;;;;;;3.63;3.08;;;6.10;54.60;;;;;;5051215;28;20029;-47
2021/03/06 11:53:11;;;;;;;3.92;2.88;;;6.20;54.40;;;;;;5033437;28;20031;-47
2021/03/06 11:55:37;;;;;;;7.45;3.60;;;6.20;54.60;;;;;;5050498;28;20105;-47
2021/03/06 11:58:03;;;;;;;6.75;3.20;;;6.30;54.30;;;;;;5050642;28;20104;-51
2021/03/06 12:00:30;;;;;;;4.13;3.10;;;6.30;53.80;;;;;;5051511;28;20035;-53
2021/03/06 12:02:56;;;;;;;4.38;2.60;;;6.50;54.70;;;;;;5051560;28;20025;-49
2021/03/06 12:05:22;;;;;;;2.97;2.58;;;6.50;50.50;;;;;;5051492;28;20035;-48
2021/03/06 12:07:49;;;;;;;4.45;2.63;;;6.30;52.10;;;;;;5051620;28;20028;-51
2021/03/06 12:10:17;;;;;;;2.95;2.65;;;6.20;50.30;;;;;;5033347;28;20461;-51
2021/03/06 12:12:44;;;;;;;3.63;2.63;;;6.30;51.80;;;;;;5050971;28;20025;-49
2021/03/06 12:15:13;;;;;;;3.22;2.92;;;6.30;52.00;;;;;;5051236;28;20025;-50
2021/03/06 12:17:39;;;;;;;3.50;3.20;;;6.40;51.60;;;;;;5033369;28;20024;-50
2021/03/06 12:20:06;;;;;;;3.00;2.80;;;6.50;51.60;;;;;;5051348;28;20110;-54
2021/03/06 12:22:31;;;;;;;4.28;2.83;;;6.40;52.60;;;;;;5050310;28;20569;-48
2021/03/06 12:24:57;;;;;;;8.90;3.15;;;6.40;53.90;;;;;;5050773;28;20144;-50
2021/03/06 12:27:22;;;;;;;4.53;3.20;;;6.50;55.50;;;;;;5050740;28;20481;-48
2021/03/06 12:29:48;;;;;;;5.85;4.68;;;6.50;54.00;;;;;;5051013;28;20029;-48
2021/03/06 12:32:13;;;;;;;4.07;3.42;;;6.50;53.60;;;;;;5050954;28;20605;-47
2021/03/06 12:34:39;;;;;;;6.70;3.13;;;6.50;52.40;;;;;;5050689;28;20524;-53
2021/03/06 12:37:05;;;;;;;3.70;2.78;;;6.60;52.90;;;;;;5033083;28;20029;-51
2021/03/06 12:39:32;;;;;;;3.67;3.10;;;6.70;51.00;;;;;;5050934;28;20482;-48
2021/03/06 12:41:57;;;;;;;2.85;2.45;;;6.70;50.50;;;;;;5050818;28;20033;-53
2021/03/06 12:44:23;;;;;;;4.30;2.88;;;6.70;50.60;;;;;;5032767;28;20043;-48
2021/03/06 12:46:49;;;;;;;4.65;2.83;;;6.70;51.50;;;;;;5032880;28;20064;-48
2021/03/06 12:49:19;;;;;;;2.75;2.55;;;6.80;51.90;;;;;;5050356;28;20091;-46
2021/03/06 12:51:45;;;;;;;2.72;2.53;;;6.80;48.80;;;;;;5032547;28;20108;-47
2021/03/06 12:54:11;;;;;;;3.22;2.92;;;6.80;49.50;;;;;;5050514;28;20055;-47
2021/03/06 12:56:36;;;;;;;3.00;2.75;;;6.80;49.20;;;;;;5050927;28;20025;-47
2021/03/06 12:59:02;;;;;;;4.50;3.72;;;6.80;49.40;;;;;;5032326;28;20024;-48
2021/03/06 13:01:28;;;;;;;4.10;3.53;;;6.90;54.60;;;;;;5031732;28;20048;-49
2021/03/06 13:03:53;;;;;;;3.90;3.47;;;6.90;54.90;;;;;;5050373;28;20021;-49
2021/03/06 13:06:19;;;;;;;10.50;3.58;;;7.00;55.80;;;;;;5049839;28;20112;-48